sensor_id;sensor_type;location;lat;lon;timestamp;temperature;humidity
24645;DHT22;12780;45.502;9.146;2023-01-09T00:00:13;8.80;99.90
24645;DHT22;12780;45.502;9.146;2023-01-09T00:02:40;8.90;99.90
24645;DHT22;12780;45.502;9.146;2023-01-09T00:05:07;8.90;99.90
24645;DHT22;12780;45.502;9.146;2023-01-09T00:07:32;8.90;99.90
24645;DHT22;12780;45.502;9.146;2023-01-09T00:09:58;8.90;99.90
24645;DHT22;12780;45.502;9.146;2023-01-09T00:12:24;9.00;99.90
24645;DHT22;12780;45.502;9.146;2023-01-09T00:14:49;9.10;99.90
24645;DHT22;12780;45.502;9.146;2023-01-09T00:17:15;9.20;99.90
24645;DHT22;12780;45.502;9.146;2023-01-09T00:19:40;9.20;99.90
24645;DHT22;12780;45.502;9.146;2023-01-09T00:22:06;9.30;99.90
24645;DHT22;12780;45.502;9.146;2023-01-09T00:24:36;9.20;99.90
24645;DHT22;12780;45.502;9.146;2023-01-09T00:27:02;9.20;99.90
24645;DHT22;12780;45.502;9.146;2023-01-09T00:29:28;9.30;99.90
24645;DHT22;12780;45.502;9.146;2023-01-09T00:31:53;9.30;99.90
24645;DHT22;12780;45.502;9.146;2023-01-09T00:34:19;9.30;99.90
24645;DHT22;12780;45.502;9.146;2023-01-09T00:36:44;9.30;99.90
24645;DHT22;12780;45.502;9.146;2023-01-09T00:39:10;9.40;99.90
24645;DHT22;12780;45.502;9.146;2023-01-09T00:41:42;9.40;99.90
24645;DHT22;12780;45.502;9.146;2023-01-09T00:44:18;9.40;99.90
24645;DHT22;12780;45.502;9.146;2023-01-09T00:46:48;9.40;99.90
24645;DHT22;12780;45.502;9.146;2023-01-09T00:49:14;9.40;99.90
24645;DHT22;12780;45.502;9.146;2023-01-09T00:51:41;9.30;99.90
24645;DHT22;12780;45.502;9.146;2023-01-09T00:54:10;9.30;99.90
24645;DHT22;12780;45.502;9.146;2023-01-09T00:56:38;9.20;99.90
24645;DHT22;12780;45.502;9.146;2023-01-09T00:59:04;9.10;99.90
24645;DHT22;12780;45.502;9.146;2023-01-09T01:01:30;9.10;99.90
24645;DHT22;12780;45.502;9.146;2023-01-09T01:03:56;9.00;99.90
24645;DHT22;12780;45.502;9.146;2023-01-09T01:06:21;9.00;99.90
24645;DHT22;12780;45.502;9.146;2023-01-09T01:09:05;9.00;99.90
24645;DHT22;12780;45.502;9.146;2023-01-09T01:11:32;9.10;99.90
24645;DHT22;12780;45.502;9.146;2023-01-09T01:13:57;9.10;99.90
24645;DHT22;12780;45.502;9.146;2023-01-09T01:16:23;9.20;99.90
24645;DHT22;12780;45.502;9.146;2023-01-09T01:18:49;9.30;99.90
24645;DHT22;12780;45.502;9.146;2023-01-09T01:21:15;9.30;99.90
24645;DHT22;12780;45.502;9.146;2023-01-09T01:23:41;9.30;99.90
24645;DHT22;12780;45.502;9.146;2023-01-09T01:26:10;9.30;99.90
24645;DHT22;12780;45.502;9.146;2023-01-09T01:28:37;9.30;99.90
24645;DHT22;12780;45.502;9.146;2023-01-09T01:31:03;9.30;99.90
24645;DHT22;12780;45.502;9.146;2023-01-09T01:33:30;9.30;99.90
24645;DHT22;12780;45.502;9.146;2023-01-09T01:36:03;9.40;99.90
24645;DHT22;12780;45.502;9.146;2023-01-09T01:38:29;9.40;99.90
24645;DHT22;12780;45.502;9.146;2023-01-09T01:40:55;9.50;99.90
24645;DHT22;12780;45.502;9.146;2023-01-09T01:43:20;9.50;99.90
24645;DHT22;12780;45.502;9.146;2023-01-09T01:45:46;9.50;99.90
24645;DHT22;12780;45.502;9.146;2023-01-09T01:48:19;9.50;99.90
24645;DHT22;12780;45.502;9.146;2023-01-09T01:50:51;9.50;99.90
24645;DHT22;12780;45.502;9.146;2023-01-09T01:53:26;9.40;99.90
24645;DHT22;12780;45.502;9.146;2023-01-09T01:56:13;9.40;99.90
24645;DHT22;12780;45.502;9.146;2023-01-09T02:01:19;9.50;99.90
24645;DHT22;12780;45.502;9.146;2023-01-09T02:03:45;9.60;99.90
24645;DHT22;12780;45.502;9.146;2023-01-09T02:06:11;9.60;99.90
24645;DHT22;12780;45.502;9.146;2023-01-09T02:08:37;9.60;99.90
24645;DHT22;12780;45.502;9.146;2023-01-09T02:11:04;9.50;99.90
24645;DHT22;12780;45.502;9.146;2023-01-09T02:13:31;9.50;99.90
24645;DHT22;12780;45.502;9.146;2023-01-09T02:18:46;9.50;99.90
24645;DHT22;12780;45.502;9.146;2023-01-09T02:24:27;9.40;99.90
24645;DHT22;12780;45.502;9.146;2023-01-09T02:32:14;9.50;99.90
24645;DHT22;12780;45.502;9.146;2023-01-09T02:35:11;9.40;99.90
24645;DHT22;12780;45.502;9.146;2023-01-09T02:40:35;9.10;99.90
24645;DHT22;12780;45.502;9.146;2023-01-09T02:43:02;9.00;99.90
24645;DHT22;12780;45.502;9.146;2023-01-09T02:45:29;8.90;99.90
24645;DHT22;12780;45.502;9.146;2023-01-09T02:47:55;9.00;99.90
24645;DHT22;12780;45.502;9.146;2023-01-09T02:50:39;9.10;99.90
24645;DHT22;12780;45.502;9.146;2023-01-09T02:53:34;9.10;99.90
24645;DHT22;12780;45.502;9.146;2023-01-09T02:59:19;9.20;99.90
24645;DHT22;12780;45.502;9.146;2023-01-09T03:07:23;9.20;99.90
24645;DHT22;12780;45.502;9.146;2023-01-09T03:09:54;9.30;99.90
24645;DHT22;12780;45.502;9.146;2023-01-09T03:12:22;9.30;99.90
24645;DHT22;12780;45.502;9.146;2023-01-09T03:14:51;9.40;99.90
24645;DHT22;12780;45.502;9.146;2023-01-09T03:17:28;9.40;99.90
24645;DHT22;12780;45.502;9.146;2023-01-09T03:19:58;9.40;99.90
24645;DHT22;12780;45.502;9.146;2023-01-09T03:22:25;9.30;99.90
24645;DHT22;12780;45.502;9.146;2023-01-09T03:24:50;9.20;99.90
24645;DHT22;12780;45.502;9.146;2023-01-09T03:27:16;9.30;99.90
24645;DHT22;12780;45.502;9.146;2023-01-09T03:29:42;9.40;99.90
24645;DHT22;12780;45.502;9.146;2023-01-09T03:32:08;9.40;99.90
24645;DHT22;12780;45.502;9.146;2023-01-09T03:34:33;9.40;99.90
24645;DHT22;12780;45.502;9.146;2023-01-09T03:36:59;9.30;99.90
24645;DHT22;12780;45.502;9.146;2023-01-09T03:39:24;9.30;99.90
24645;DHT22;12780;45.502;9.146;2023-01-09T03:41:50;9.00;99.90
24645;DHT22;12780;45.502;9.146;2023-01-09T03:44:15;9.00;99.90
24645;DHT22;12780;45.502;9.146;2023-01-09T03:46:41;9.00;99.90
24645;DHT22;12780;45.502;9.146;2023-01-09T03:49:07;9.00;99.90
24645;DHT22;12780;45.502;9.146;2023-01-09T03:51:32;9.00;99.90
24645;DHT22;12780;45.502;9.146;2023-01-09T03:53:58;9.10;99.90
24645;DHT22;12780;45.502;9.146;2023-01-09T03:56:23;9.20;99.90
24645;DHT22;12780;45.502;9.146;2023-01-09T03:58:49;9.20;99.90
24645;DHT22;12780;45.502;9.146;2023-01-09T04:01:17;9.30;99.90
24645;DHT22;12780;45.502;9.146;2023-01-09T04:03:42;9.30;99.90
24645;DHT22;12780;45.502;9.146;2023-01-09T04:06:08;9.30;99.90
24645;DHT22;12780;45.502;9.146;2023-01-09T04:08:33;9.30;99.90
24645;DHT22;12780;45.502;9.146;2023-01-09T04:10:59;9.30;99.90
24645;DHT22;12780;45.502;9.146;2023-01-09T04:13:25;9.50;99.90
24645;DHT22;12780;45.502;9.146;2023-01-09T04:15:50;9.40;99.90
24645;DHT22;12780;45.502;9.146;2023-01-09T04:18:16;9.40;99.90
24645;DHT22;12780;45.502;9.146;2023-01-09T04:20:42;9.50;99.90
24645;DHT22;12780;45.502;9.146;2023-01-09T04:23:10;9.40;99.90
24645;DHT22;12780;45.502;9.146;2023-01-09T04:25:36;9.40;99.90
24645;DHT22;12780;45.502;9.146;2023-01-09T04:28:01;9.30;99.90
24645;DHT22;12780;45.502;9.146;2023-01-09T04:30:27;9.30;99.90
24645;DHT22;12780;45.502;9.146;2023-01-09T04:32:52;9.20;99.90
24645;DHT22;12780;45.502;9.146;2023-01-09T04:35:19;9.30;99.90
24645;DHT22;12780;45.502;9.146;2023-01-09T04:37:44;9.20;99.90
24645;DHT22;12780;45.502;9.146;2023-01-09T04:40:10;9.20;99.90
24645;DHT22;12780;45.502;9.146;2023-01-09T04:42:37;9.20;99.90
24645;DHT22;12780;45.502;9.146;2023-01-09T04:45:06;9.20;99.90
24645;DHT22;12780;45.502;9.146;2023-01-09T04:47:32;9.20;99.90
24645;DHT22;12780;45.502;9.146;2023-01-09T04:50:00;9.20;99.90
24645;DHT22;12780;45.502;9.146;2023-01-09T04:52:26;9.20;99.90
24645;DHT22;12780;45.502;9.146;2023-01-09T04:54:52;9.30;99.90
24645;DHT22;12780;45.502;9.146;2023-01-09T04:57:18;9.20;99.90
24645;DHT22;12780;45.502;9.146;2023-01-09T04:59:43;9.20;99.90
24645;DHT22;12780;45.502;9.146;2023-01-09T05:02:09;9.20;99.90
24645;DHT22;12780;45.502;9.146;2023-01-09T05:04:35;9.20;99.90
24645;DHT22;12780;45.502;9.146;2023-01-09T05:07:00;9.20;99.90
24645;DHT22;12780;45.502;9.146;2023-01-09T05:09:26;9.30;99.90
24645;DHT22;12780;45.502;9.146;2023-01-09T05:11:52;9.10;99.90
24645;DHT22;12780;45.502;9.146;2023-01-09T05:14:18;9.20;99.90
24645;DHT22;12780;45.502;9.146;2023-01-09T05:16:43;9.10;99.90
24645;DHT22;12780;45.502;9.146;2023-01-09T05:19:09;9.10;99.90
24645;DHT22;12780;45.502;9.146;2023-01-09T05:21:34;9.10;99.90
24645;DHT22;12780;45.502;9.146;2023-01-09T05:24:00;9.10;99.90
24645;DHT22;12780;45.502;9.146;2023-01-09T05:26:26;9.10;99.90
24645;DHT22;12780;45.502;9.146;2023-01-09T05:28:55;9.10;99.90
24645;DHT22;12780;45.502;9.146;2023-01-09T05:31:22;9.20;99.90
24645;DHT22;12780;45.502;9.146;2023-01-09T05:33:48;9.20;99.90
24645;DHT22;12780;45.502;9.146;2023-01-09T05:36:14;9.10;99.90
24645;DHT22;12780;45.502;9.146;2023-01-09T05:38:39;9.20;99.90
24645;DHT22;12780;45.502;9.146;2023-01-09T05:41:05;9.30;99.90
24645;DHT22;12780;45.502;9.146;2023-01-09T05:43:32;9.30;99.90
24645;DHT22;12780;45.502;9.146;2023-01-09T05:45:57;9.20;99.90
24645;DHT22;12780;45.502;9.146;2023-01-09T05:48:23;9.30;99.90
24645;DHT22;12780;45.502;9.146;2023-01-09T05:50:48;9.30;99.90
24645;DHT22;12780;45.502;9.146;2023-01-09T05:53:14;9.30;99.90
24645;DHT22;12780;45.502;9.146;2023-01-09T05:55:39;9.40;99.90
24645;DHT22;12780;45.502;9.146;2023-01-09T05:58:05;9.30;99.90
24645;DHT22;12780;45.502;9.146;2023-01-09T06:00:30;9.30;99.90
24645;DHT22;12780;45.502;9.146;2023-01-09T06:02:56;9.30;99.90
24645;DHT22;12780;45.502;9.146;2023-01-09T06:05:22;9.30;99.90
24645;DHT22;12780;45.502;9.146;2023-01-09T06:07:47;9.30;99.90
24645;DHT22;12780;45.502;9.146;2023-01-09T06:10:14;9.30;99.90
24645;DHT22;12780;45.502;9.146;2023-01-09T06:12:40;9.30;99.90
24645;DHT22;12780;45.502;9.146;2023-01-09T06:15:06;9.20;99.90
24645;DHT22;12780;45.502;9.146;2023-01-09T06:17:32;9.20;99.90
24645;DHT22;12780;45.502;9.146;2023-01-09T06:19:58;9.10;99.90
24645;DHT22;12780;45.502;9.146;2023-01-09T06:22:23;9.20;99.90
24645;DHT22;12780;45.502;9.146;2023-01-09T06:24:49;9.20;99.90
24645;DHT22;12780;45.502;9.146;2023-01-09T06:27:14;9.20;99.90
24645;DHT22;12780;45.502;9.146;2023-01-09T06:29:40;9.20;99.90
24645;DHT22;12780;45.502;9.146;2023-01-09T06:32:05;9.30;99.90
24645;DHT22;12780;45.502;9.146;2023-01-09T06:34:31;9.20;99.90
24645;DHT22;12780;45.502;9.146;2023-01-09T06:36:57;9.20;99.90
24645;DHT22;12780;45.502;9.146;2023-01-09T06:39:22;9.20;99.90
24645;DHT22;12780;45.502;9.146;2023-01-09T06:41:48;9.20;99.90
24645;DHT22;12780;45.502;9.146;2023-01-09T06:44:13;9.20;99.90
24645;DHT22;12780;45.502;9.146;2023-01-09T06:46:39;9.20;99.90
24645;DHT22;12780;45.502;9.146;2023-01-09T06:49:04;9.20;99.90
24645;DHT22;12780;45.502;9.146;2023-01-09T06:51:30;9.20;99.90
24645;DHT22;12780;45.502;9.146;2023-01-09T06:53:55;9.20;99.90
24645;DHT22;12780;45.502;9.146;2023-01-09T06:56:21;9.20;99.90
24645;DHT22;12780;45.502;9.146;2023-01-09T06:58:47;9.20;99.90
24645;DHT22;12780;45.502;9.146;2023-01-09T07:01:12;9.20;99.90
24645;DHT22;12780;45.502;9.146;2023-01-09T07:03:38;9.20;99.90
24645;DHT22;12780;45.502;9.146;2023-01-09T07:06:04;9.20;99.90
24645;DHT22;12780;45.502;9.146;2023-01-09T07:08:30;9.20;99.90
24645;DHT22;12780;45.502;9.146;2023-01-09T07:10:55;9.20;99.90
24645;DHT22;12780;45.502;9.146;2023-01-09T07:13:21;9.20;99.90
24645;DHT22;12780;45.502;9.146;2023-01-09T07:15:46;9.20;99.90
24645;DHT22;12780;45.502;9.146;2023-01-09T07:18:13;9.20;99.90
24645;DHT22;12780;45.502;9.146;2023-01-09T07:20:39;9.20;99.90
24645;DHT22;12780;45.502;9.146;2023-01-09T07:23:06;9.20;99.90
24645;DHT22;12780;45.502;9.146;2023-01-09T07:25:32;9.20;99.90
24645;DHT22;12780;45.502;9.146;2023-01-09T07:27:57;9.20;99.90
24645;DHT22;12780;45.502;9.146;2023-01-09T07:30:23;9.20;99.90
24645;DHT22;12780;45.502;9.146;2023-01-09T07:32:48;9.20;99.90
24645;DHT22;12780;45.502;9.146;2023-01-09T07:35:14;9.40;99.90
24645;DHT22;12780;45.502;9.146;2023-01-09T07:37:39;9.20;99.90
24645;DHT22;12780;45.502;9.146;2023-01-09T07:40:05;9.20;99.90
24645;DHT22;12780;45.502;9.146;2023-01-09T07:42:31;9.10;99.90
24645;DHT22;12780;45.502;9.146;2023-01-09T07:44:57;9.10;99.90
24645;DHT22;12780;45.502;9.146;2023-01-09T07:47:23;9.10;99.90
24645;DHT22;12780;45.502;9.146;2023-01-09T07:49:48;9.10;99.90
24645;DHT22;12780;45.502;9.146;2023-01-09T07:52:14;9.10;99.90
24645;DHT22;12780;45.502;9.146;2023-01-09T07:54:39;9.10;99.90
24645;DHT22;12780;45.502;9.146;2023-01-09T07:57:05;9.10;99.90
24645;DHT22;12780;45.502;9.146;2023-01-09T07:59:31;9.10;99.90
24645;DHT22;12780;45.502;9.146;2023-01-09T08:01:57;9.20;99.90
24645;DHT22;12780;45.502;9.146;2023-01-09T08:04:22;9.10;99.90
24645;DHT22;12780;45.502;9.146;2023-01-09T08:06:48;9.10;99.90
24645;DHT22;12780;45.502;9.146;2023-01-09T08:09:13;9.10;99.90
24645;DHT22;12780;45.502;9.146;2023-01-09T08:11:40;9.00;99.90
24645;DHT22;12780;45.502;9.146;2023-01-09T08:14:05;9.10;99.90
24645;DHT22;12780;45.502;9.146;2023-01-09T08:16:31;9.10;99.90
24645;DHT22;12780;45.502;9.146;2023-01-09T08:18:57;9.10;99.90
24645;DHT22;12780;45.502;9.146;2023-01-09T08:21:23;9.10;99.90
24645;DHT22;12780;45.502;9.146;2023-01-09T08:23:49;9.10;99.90
24645;DHT22;12780;45.502;9.146;2023-01-09T08:26:15;9.10;99.90
24645;DHT22;12780;45.502;9.146;2023-01-09T08:28:41;9.00;99.90
24645;DHT22;12780;45.502;9.146;2023-01-09T08:31:07;9.10;99.90
24645;DHT22;12780;45.502;9.146;2023-01-09T08:33:32;9.10;99.90
24645;DHT22;12780;45.502;9.146;2023-01-09T08:35:58;9.00;99.90
24645;DHT22;12780;45.502;9.146;2023-01-09T08:38:24;9.00;99.90
24645;DHT22;12780;45.502;9.146;2023-01-09T08:40:49;9.00;99.90
24645;DHT22;12780;45.502;9.146;2023-01-09T08:43:15;9.00;99.90
24645;DHT22;12780;45.502;9.146;2023-01-09T08:45:59;9.00;99.90
24645;DHT22;12780;45.502;9.146;2023-01-09T08:48:44;8.90;99.90
24645;DHT22;12780;45.502;9.146;2023-01-09T08:51:10;8.90;99.90
24645;DHT22;12780;45.502;9.146;2023-01-09T08:53:36;8.90;99.90
24645;DHT22;12780;45.502;9.146;2023-01-09T08:56:02;8.90;99.90
24645;DHT22;12780;45.502;9.146;2023-01-09T08:58:28;8.80;99.90
24645;DHT22;12780;45.502;9.146;2023-01-09T09:00:54;8.80;99.90
24645;DHT22;12780;45.502;9.146;2023-01-09T09:03:20;8.80;99.90
24645;DHT22;12780;45.502;9.146;2023-01-09T09:05:46;8.80;99.90
24645;DHT22;12780;45.502;9.146;2023-01-09T09:08:12;8.90;99.90
24645;DHT22;12780;45.502;9.146;2023-01-09T09:10:37;8.90;99.90
24645;DHT22;12780;45.502;9.146;2023-01-09T09:13:03;9.00;99.90
24645;DHT22;12780;45.502;9.146;2023-01-09T09:15:29;9.00;99.90
24645;DHT22;12780;45.502;9.146;2023-01-09T09:17:56;9.00;99.90
24645;DHT22;12780;45.502;9.146;2023-01-09T09:20:25;9.10;99.90
24645;DHT22;12780;45.502;9.146;2023-01-09T09:22:51;9.20;99.90
24645;DHT22;12780;45.502;9.146;2023-01-09T09:25:17;9.20;99.90
24645;DHT22;12780;45.502;9.146;2023-01-09T09:27:43;9.20;99.90
24645;DHT22;12780;45.502;9.146;2023-01-09T09:30:10;9.30;99.90
24645;DHT22;12780;45.502;9.146;2023-01-09T09:32:37;9.30;99.90
24645;DHT22;12780;45.502;9.146;2023-01-09T09:35:03;9.30;99.90
24645;DHT22;12780;45.502;9.146;2023-01-09T09:37:29;9.30;99.90
24645;DHT22;12780;45.502;9.146;2023-01-09T09:39:54;9.30;99.90
24645;DHT22;12780;45.502;9.146;2023-01-09T09:42:24;9.30;99.90
24645;DHT22;12780;45.502;9.146;2023-01-09T09:48:37;9.40;99.90
24645;DHT22;12780;45.502;9.146;2023-01-09T09:56:22;9.30;99.90
24645;DHT22;12780;45.502;9.146;2023-01-09T09:59:16;9.30;99.90
24645;DHT22;12780;45.502;9.146;2023-01-09T10:04:14;9.40;99.90
24645;DHT22;12780;45.502;9.146;2023-01-09T10:06:49;9.60;99.90
24645;DHT22;12780;45.502;9.146;2023-01-09T10:14:32;9.50;99.90
24645;DHT22;12780;45.502;9.146;2023-01-09T10:17:20;9.50;99.90
24645;DHT22;12780;45.502;9.146;2023-01-09T10:31:23;9.90;99.90
24645;DHT22;12780;45.502;9.146;2023-01-09T10:34:19;9.90;99.90
24645;DHT22;12780;45.502;9.146;2023-01-09T10:37:15;9.90;99.90
24645;DHT22;12780;45.502;9.146;2023-01-09T10:42:44;10.10;99.90
24645;DHT22;12780;45.502;9.146;2023-01-09T10:45:30;10.10;99.90
24645;DHT22;12780;45.502;9.146;2023-01-09T10:48:05;10.10;99.90
24645;DHT22;12780;45.502;9.146;2023-01-09T10:50:39;10.20;99.90
24645;DHT22;12780;45.502;9.146;2023-01-09T10:53:32;10.20;99.90
24645;DHT22;12780;45.502;9.146;2023-01-09T10:56:23;10.30;99.90
24645;DHT22;12780;45.502;9.146;2023-01-09T10:58:50;10.30;99.90
24645;DHT22;12780;45.502;9.146;2023-01-09T11:01:22;10.40;99.90
24645;DHT22;12780;45.502;9.146;2023-01-09T11:03:49;10.40;99.90
24645;DHT22;12780;45.502;9.146;2023-01-09T11:06:23;10.40;99.90
24645;DHT22;12780;45.502;9.146;2023-01-09T11:08:54;10.40;99.90
24645;DHT22;12780;45.502;9.146;2023-01-09T11:11:37;10.50;99.90
24645;DHT22;12780;45.502;9.146;2023-01-09T11:14:13;10.50;99.90
24645;DHT22;12780;45.502;9.146;2023-01-09T11:17:03;10.60;99.90
24645;DHT22;12780;45.502;9.146;2023-01-09T11:19:31;10.60;99.90
24645;DHT22;12780;45.502;9.146;2023-01-09T11:22:06;10.70;99.90
24645;DHT22;12780;45.502;9.146;2023-01-09T11:24:32;10.70;99.90
24645;DHT22;12780;45.502;9.146;2023-01-09T11:27:16;10.70;99.90
24645;DHT22;12780;45.502;9.146;2023-01-09T11:32:28;10.70;99.90
24645;DHT22;12780;45.502;9.146;2023-01-09T11:34:55;10.80;99.90
24645;DHT22;12780;45.502;9.146;2023-01-09T11:37:25;10.80;99.90
24645;DHT22;12780;45.502;9.146;2023-01-09T11:39:51;10.80;99.90
24645;DHT22;12780;45.502;9.146;2023-01-09T11:42:22;10.80;99.90
24645;DHT22;12780;45.502;9.146;2023-01-09T11:45:29;10.70;99.90
24645;DHT22;12780;45.502;9.146;2023-01-09T11:47:56;10.70;99.90
24645;DHT22;12780;45.502;9.146;2023-01-09T11:50:24;10.80;99.90
24645;DHT22;12780;45.502;9.146;2023-01-09T11:53:23;10.80;99.90
24645;DHT22;12780;45.502;9.146;2023-01-09T11:56:09;10.70;99.90
24645;DHT22;12780;45.502;9.146;2023-01-09T11:58:36;10.80;99.90
24645;DHT22;12780;45.502;9.146;2023-01-09T12:04:21;10.70;99.90
24645;DHT22;12780;45.502;9.146;2023-01-09T12:09:34;10.60;99.90
24645;DHT22;12780;45.502;9.146;2023-01-09T12:20:49;10.50;99.90
24645;DHT22;12780;45.502;9.146;2023-01-09T12:28:51;10.20;99.90
24645;DHT22;12780;45.502;9.146;2023-01-09T12:31:40;10.10;99.90
24645;DHT22;12780;45.502;9.146;2023-01-09T12:39:59;9.60;99.90
24645;DHT22;12780;45.502;9.146;2023-01-09T12:48:17;9.60;99.90
24645;DHT22;12780;45.502;9.146;2023-01-09T12:51:08;9.60;99.90
24645;DHT22;12780;45.502;9.146;2023-01-09T12:53:40;9.60;99.90
24645;DHT22;12780;45.502;9.146;2023-01-09T12:56:24;9.70;99.90
24645;DHT22;12780;45.502;9.146;2023-01-09T12:58:57;9.80;99.90
24645;DHT22;12780;45.502;9.146;2023-01-09T13:01:39;9.90;99.90
24645;DHT22;12780;45.502;9.146;2023-01-09T13:04:20;10.00;99.90
24645;DHT22;12780;45.502;9.146;2023-01-09T13:06:56;10.00;99.90
24645;DHT22;12780;45.502;9.146;2023-01-09T13:09:26;10.00;99.90
24645;DHT22;12780;45.502;9.146;2023-01-09T13:12:06;9.90;99.90
24645;DHT22;12780;45.502;9.146;2023-01-09T13:14:47;9.80;99.90
24645;DHT22;12780;45.502;9.146;2023-01-09T13:17:24;9.70;99.90
24645;DHT22;12780;45.502;9.146;2023-01-09T13:19:50;9.70;99.90
24645;DHT22;12780;45.502;9.146;2023-01-09T13:22:17;9.70;99.90
24645;DHT22;12780;45.502;9.146;2023-01-09T13:27:21;9.60;99.90
24645;DHT22;12780;45.502;9.146;2023-01-09T13:30:15;9.70;99.90
24645;DHT22;12780;45.502;9.146;2023-01-09T13:35:28;9.50;99.90
24645;DHT22;12780;45.502;9.146;2023-01-09T13:37:53;9.60;99.90
24645;DHT22;12780;45.502;9.146;2023-01-09T13:43:02;9.60;99.90
24645;DHT22;12780;45.502;9.146;2023-01-09T13:45:31;9.70;99.90
24645;DHT22;12780;45.502;9.146;2023-01-09T13:50:43;9.80;99.90
24645;DHT22;12780;45.502;9.146;2023-01-09T13:56:07;9.80;99.90
24645;DHT22;12780;45.502;9.146;2023-01-09T14:01:03;9.80;99.90
24645;DHT22;12780;45.502;9.146;2023-01-09T14:03:35;9.90;99.90
24645;DHT22;12780;45.502;9.146;2023-01-09T14:06:04;9.90;99.90
24645;DHT22;12780;45.502;9.146;2023-01-09T14:08:33;10.20;99.90
24645;DHT22;12780;45.502;9.146;2023-01-09T14:11:01;10.10;99.90
24645;DHT22;12780;45.502;9.146;2023-01-09T14:16:07;10.20;99.90
24645;DHT22;12780;45.502;9.146;2023-01-09T14:18:58;10.20;99.90
24645;DHT22;12780;45.502;9.146;2023-01-09T14:21:25;10.20;99.90
24645;DHT22;12780;45.502;9.146;2023-01-09T14:24:02;10.30;99.90
24645;DHT22;12780;45.502;9.146;2023-01-09T14:34:53;10.40;99.90
24645;DHT22;12780;45.502;9.146;2023-01-09T14:37:22;10.50;99.90
24645;DHT22;12780;45.502;9.146;2023-01-09T14:39:49;10.50;99.90
24645;DHT22;12780;45.502;9.146;2023-01-09T14:42:20;10.50;99.90
24645;DHT22;12780;45.502;9.146;2023-01-09T14:44:51;10.50;99.90
24645;DHT22;12780;45.502;9.146;2023-01-09T14:47:36;10.60;99.90
24645;DHT22;12780;45.502;9.146;2023-01-09T14:52:46;10.70;99.90
24645;DHT22;12780;45.502;9.146;2023-01-09T14:55:29;10.60;99.90
24645;DHT22;12780;45.502;9.146;2023-01-09T14:58:17;10.60;99.90
24645;DHT22;12780;45.502;9.146;2023-01-09T15:00:51;10.60;99.90
24645;DHT22;12780;45.502;9.146;2023-01-09T15:03:18;10.60;99.90
24645;DHT22;12780;45.502;9.146;2023-01-09T15:05:45;10.60;99.90
24645;DHT22;12780;45.502;9.146;2023-01-09T15:08:16;10.60;99.90
24645;DHT22;12780;45.502;9.146;2023-01-09T15:10:44;10.50;99.90
24645;DHT22;12780;45.502;9.146;2023-01-09T15:13:15;10.50;99.90
24645;DHT22;12780;45.502;9.146;2023-01-09T15:15:46;10.50;99.90
24645;DHT22;12780;45.502;9.146;2023-01-09T15:18:22;10.60;99.90
24645;DHT22;12780;45.502;9.146;2023-01-09T15:20:54;10.40;99.90
24645;DHT22;12780;45.502;9.146;2023-01-09T15:23:23;10.40;99.90
24645;DHT22;12780;45.502;9.146;2023-01-09T15:25:49;10.40;99.90
24645;DHT22;12780;45.502;9.146;2023-01-09T15:30:53;10.30;99.90
24645;DHT22;12780;45.502;9.146;2023-01-09T15:33:20;10.30;99.90
24645;DHT22;12780;45.502;9.146;2023-01-09T15:35:48;10.10;99.90
24645;DHT22;12780;45.502;9.146;2023-01-09T15:38:21;10.20;99.90
24645;DHT22;12780;45.502;9.146;2023-01-09T15:41:07;10.20;99.90
24645;DHT22;12780;45.502;9.146;2023-01-09T15:43:33;10.20;99.90
24645;DHT22;12780;45.502;9.146;2023-01-09T15:46:01;10.20;99.90
24645;DHT22;12780;45.502;9.146;2023-01-09T15:48:29;10.10;99.90
24645;DHT22;12780;45.502;9.146;2023-01-09T15:51:14;10.10;99.90
24645;DHT22;12780;45.502;9.146;2023-01-09T15:53:45;10.10;99.90
24645;DHT22;12780;45.502;9.146;2023-01-09T15:58:38;10.10;99.90
24645;DHT22;12780;45.502;9.146;2023-01-09T16:03:53;10.10;99.90
24645;DHT22;12780;45.502;9.146;2023-01-09T16:06:28;10.00;99.90
24645;DHT22;12780;45.502;9.146;2023-01-09T16:08:57;10.00;99.90
24645;DHT22;12780;45.502;9.146;2023-01-09T16:11:32;9.90;99.90
24645;DHT22;12780;45.502;9.146;2023-01-09T16:16:40;10.00;99.90
24645;DHT22;12780;45.502;9.146;2023-01-09T16:19:27;10.00;99.90
24645;DHT22;12780;45.502;9.146;2023-01-09T16:21:58;9.90;99.90
24645;DHT22;12780;45.502;9.146;2023-01-09T16:24:39;9.90;99.90
24645;DHT22;12780;45.502;9.146;2023-01-09T16:27:21;9.90;99.90
24645;DHT22;12780;45.502;9.146;2023-01-09T16:29:49;9.90;99.90
24645;DHT22;12780;45.502;9.146;2023-01-09T16:32:34;9.90;99.90
24645;DHT22;12780;45.502;9.146;2023-01-09T16:35:04;9.90;99.90
24645;DHT22;12780;45.502;9.146;2023-01-09T16:37:30;9.90;99.90
24645;DHT22;12780;45.502;9.146;2023-01-09T16:42:51;9.80;99.90
24645;DHT22;12780;45.502;9.146;2023-01-09T16:45:36;9.80;99.90
24645;DHT22;12780;45.502;9.146;2023-01-09T16:48:15;9.70;99.90
24645;DHT22;12780;45.502;9.146;2023-01-09T16:50:42;9.70;99.90
24645;DHT22;12780;45.502;9.146;2023-01-09T16:55:39;9.70;99.90
24645;DHT22;12780;45.502;9.146;2023-01-09T16:58:04;9.80;99.90
24645;DHT22;12780;45.502;9.146;2023-01-09T17:00:30;9.70;99.90
24645;DHT22;12780;45.502;9.146;2023-01-09T17:02:56;9.70;99.90
24645;DHT22;12780;45.502;9.146;2023-01-09T17:05:22;9.70;99.90
24645;DHT22;12780;45.502;9.146;2023-01-09T17:07:48;9.70;99.90
24645;DHT22;12780;45.502;9.146;2023-01-09T17:10:19;9.60;99.90
24645;DHT22;12780;45.502;9.146;2023-01-09T17:12:45;9.60;99.90
24645;DHT22;12780;45.502;9.146;2023-01-09T17:15:11;9.60;99.90
24645;DHT22;12780;45.502;9.146;2023-01-09T17:17:36;9.60;99.90
24645;DHT22;12780;45.502;9.146;2023-01-09T17:20:02;9.60;99.90
24645;DHT22;12780;45.502;9.146;2023-01-09T17:22:31;9.60;99.90
24645;DHT22;12780;45.502;9.146;2023-01-09T17:24:57;9.70;99.90
24645;DHT22;12780;45.502;9.146;2023-01-09T17:27:41;9.60;99.90
24645;DHT22;12780;45.502;9.146;2023-01-09T17:30:25;9.70;99.90
24645;DHT22;12780;45.502;9.146;2023-01-09T17:32:51;9.70;99.90
24645;DHT22;12780;45.502;9.146;2023-01-09T17:35:16;9.70;99.90
24645;DHT22;12780;45.502;9.146;2023-01-09T17:37:42;9.70;99.90
24645;DHT22;12780;45.502;9.146;2023-01-09T17:40:18;9.70;99.90
24645;DHT22;12780;45.502;9.146;2023-01-09T17:42:44;9.70;99.90
24645;DHT22;12780;45.502;9.146;2023-01-09T17:45:10;9.90;99.90
24645;DHT22;12780;45.502;9.146;2023-01-09T17:47:35;9.70;99.90
24645;DHT22;12780;45.502;9.146;2023-01-09T17:50:02;9.70;99.90
24645;DHT22;12780;45.502;9.146;2023-01-09T17:52:28;9.80;99.90
24645;DHT22;12780;45.502;9.146;2023-01-09T17:54:53;9.80;99.90
24645;DHT22;12780;45.502;9.146;2023-01-09T17:57:19;9.80;99.90
24645;DHT22;12780;45.502;9.146;2023-01-09T17:59:45;9.80;99.90
24645;DHT22;12780;45.502;9.146;2023-01-09T18:02:17;9.80;99.90
24645;DHT22;12780;45.502;9.146;2023-01-09T18:04:43;9.80;99.90
24645;DHT22;12780;45.502;9.146;2023-01-09T18:07:16;9.80;99.90
24645;DHT22;12780;45.502;9.146;2023-01-09T18:09:43;9.80;99.90
24645;DHT22;12780;45.502;9.146;2023-01-09T18:12:09;9.70;99.90